Sainte Genevieve, Missouri
Current Conditions -  °F | °C
As of 9:55 PM on Tuesday 21 Oct 2014 (Local Time) from KSAR Reporting Station
Clear Clear  
Wind Chill:   Ceiling: Unl
Heat Index:   Visibility: 10mi
Dew Point:   Wind: 6mph
Humidity: 78%   Direction: 60°ENE
Pressure: 30.19"   Gusts: NA
Location:  37.98°N, 90.04°W
Report Text: KSAR 220255Z AUTO 06005KT 10SM CLR 09/06 A3019 RMK AO2 T00910055
Loading
Personal Weather Stations






























Interactive Weather Map
Tropical Storm Tracking
New forecast layout! Learn more

10-Day Weather Forecast

Advertisements
Track Severe Weather on mobile